Time;durP1;ratioP1;P1;durP2;ratioP2;P2;SDS_P1;SDS_P2;PMS_P1;PMS_P2;Temp;Humidity;BMP_temperature;BMP_pressure;BME280_temperature;BME280_humidity;BME280_pressure;Samples;Min_cycle;Max_cycle;Signal;HPM_P1;HPM_P2
2022/11/18 00:00:51;;;;;;;5.15;1.63;;;;;;;5.79;100.00;99400.31;4992981;28;20113;-93
2022/11/18 00:03:16;;;;;;;4.57;1.60;;;;;;;5.78;100.00;99401.38;4992040;28;20030;-94
2022/11/18 00:05:42;;;;;;;8.43;2.30;;;;;;;5.74;100.00;99396.59;4995710;28;20026;-93
2022/11/18 00:08:07;;;;;;;7.20;1.60;;;;;;;5.74;100.00;99403.75;4994711;28;20023;-93
2022/11/18 00:10:35;;;;;;;9.40;1.80;;;;;;;5.68;100.00;99400.28;4996329;28;20026;-94
2022/11/18 00:15:44;;;;;;;12.95;1.83;;;;;;;5.69;100.00;99406.41;4992118;28;20105;-93
2022/11/18 00:18:09;;;;;;;8.03;2.00;;;;;;;5.65;100.00;99408.00;4994678;28;20426;-94
2022/11/18 00:20:35;;;;;;;9.53;2.17;;;;;;;5.63;100.00;99405.59;4994575;28;20054;-93
2022/11/18 00:23:00;;;;;;;6.23;1.80;;;;;;;5.58;100.00;99411.69;5010230;28;20082;-94
2022/11/18 00:25:26;;;;;;;3.70;1.53;;;;;;;5.58;100.00;99408.22;5009985;28;20053;-94
2022/11/18 00:27:53;;;;;;;5.22;1.52;;;;;;;5.65;100.00;99423.94;5010501;28;20029;-91
2022/11/18 00:30:18;;;;;;;6.82;2.00;;;;;;;5.66;100.00;99425.53;4997404;28;20030;-92
2022/11/18 00:32:44;;;;;;;6.80;1.50;;;;;;;5.70;100.00;99426.59;5011051;28;20099;-91
2022/11/18 00:35:09;;;;;;;4.97;1.73;;;;;;;5.69;100.00;99425.00;4999163;28;20035;-93
2022/11/18 00:37:35;;;;;;;6.67;2.20;;;;;;;5.72;100.00;99437.78;4995965;28;20054;-92
2022/11/18 00:40:00;;;;;;;7.18;1.90;;;;;;;5.76;100.00;99431.69;4998680;28;20031;-92
2022/11/18 00:45:09;;;;;;;9.48;2.03;;;;;;;5.91;100.00;99443.44;5010967;28;20041;-92
2022/11/18 00:47:35;;;;;;;7.73;2.00;;;;;;;6.01;100.00;99438.19;5007367;28;20094;-92
2022/11/18 00:50:00;;;;;;;9.97;2.07;;;;;;;6.02;100.00;99434.47;5008781;28;20090;-93
2022/11/18 00:52:25;;;;;;;7.60;2.23;;;;;;;6.16;100.00;99452.59;5000719;28;20081;-92
2022/11/18 00:54:52;;;;;;;5.93;1.80;;;;;;;6.18;100.00;99443.28;4988927;28;20031;-92
2022/11/18 00:57:17;;;;;;;5.22;1.58;;;;;;;6.13;100.00;99445.94;4993423;28;20077;-91
2022/11/18 00:59:42;;;;;;;7.33;2.00;;;;;;;6.11;100.00;99452.59;4989540;28;20422;-92
2022/11/18 01:02:07;;;;;;;5.50;2.03;;;;;;;6.08;100.00;99453.09;4989441;28;20030;-92
2022/11/18 01:04:33;;;;;;;4.97;1.70;;;;;;;6.03;100.00;99460.00;4995391;28;20030;-91
2022/11/18 01:06:58;;;;;;;6.77;1.70;;;;;;;6.02;100.00;99466.38;4995506;28;20037;-91
2022/11/18 01:09:24;;;;;;;6.23;1.70;;;;;;;6.00;100.00;99467.72;4992211;28;20050;-91
2022/11/18 01:14:33;;;;;;;9.13;1.88;;;;;;;5.96;100.00;99479.88;5002805;28;20037;-92
2022/11/18 01:16:58;;;;;;;6.73;2.07;;;;;;;5.91;100.00;99476.13;5011540;28;20054;-91
2022/11/18 01:19:25;;;;;;;6.72;1.45;;;;;;;5.89;100.00;99475.59;5011115;28;20046;-93
2022/11/18 01:21:51;;;;;;;7.50;1.63;;;;;;;5.86;100.00;99467.34;5003865;28;20037;-93
2022/11/18 01:24:16;;;;;;;6.53;1.90;;;;;;;5.90;100.00;99479.06;5000642;28;20384;-92
2022/11/18 01:26:42;;;;;;;7.60;1.93;;;;;;;6.00;100.00;99486.31;4999831;28;20387;-93
2022/11/18 01:29:07;;;;;;;7.20;2.00;;;;;;;6.02;100.00;99485.00;4980500;28;20022;-92
2022/11/18 01:31:32;;;;;;;9.65;2.22;;;;;;;6.12;100.00;99492.22;4999342;28;20031;-92
2022/11/18 01:33:59;;;;;;;8.43;2.20;;;;;;;6.14;100.00;99490.09;4994745;28;20030;-92
2022/11/18 01:36:26;;;;;;;6.95;2.10;;;;;;;6.23;100.00;99503.69;4994930;28;20058;-92
2022/11/18 01:38:52;;;;;;;4.07;1.80;;;;;;;6.28;100.00;99505.56;4993655;28;20038;-93
2022/11/18 01:41:20;;;;;;;7.07;1.80;;;;;;;6.31;100.00;99505.03;4992486;28;20137;-93
2022/11/18 01:43:47;;;;;;;5.70;1.73;;;;;;;6.34;100.00;99510.63;4990467;28;20366;-92
2022/11/18 01:46:13;;;;;;;5.13;1.60;;;;;;;6.36;100.00;99513.03;4988303;28;20031;-92
2022/11/18 01:48:38;;;;;;;5.53;1.93;;;;;;;6.38;100.00;99513.59;4957643;28;20045;-92
2022/11/18 01:51:08;;;;;;;4.43;1.75;;;;;;;6.40;100.00;99529.28;4987142;28;20033;-92
2022/11/18 01:53:38;;;;;;;5.03;1.63;;;;;;;6.39;100.00;99517.81;4990458;28;20141;-93
2022/11/18 01:56:17;;;;;;;4.73;1.80;;;;;;;6.34;100.00;99515.16;4991871;28;20477;-92
2022/11/18 01:58:55;;;;;;;8.00;1.87;;;;;;;6.37;100.00;99527.94;4989717;28;20408;-92
2022/11/18 02:01:20;;;;;;;5.20;1.73;;;;;;;6.34;100.00;99523.16;4991092;28;20505;-92
2022/11/18 02:03:48;;;;;;;6.60;1.70;;;;;;;6.34;100.00;99523.16;4994182;28;20030;-93
2022/11/18 02:06:13;;;;;;;4.97;1.50;;;;;;;6.34;100.00;99531.91;4994587;28;20042;-93
2022/11/18 02:08:40;;;;;;;10.07;1.50;;;;;;;6.34;100.00;99531.91;4991250;28;20394;-93
2022/11/18 02:11:49;;;;;;;11.13;1.70;;;;;;;6.37;100.00;99525.28;4995949;28;20332;-92
2022/11/18 02:13:56;;;;;;;5.07;1.63;;;;;;;6.43;100.00;99534.88;4995413;28;20037;-93
2022/11/18 02:16:31;;;;;;;5.47;1.85;;;;;;;6.46;100.00;99534.34;4994819;28;20494;-92
2022/11/18 02:19:00;;;;;;;9.50;1.73;;;;;;;6.53;100.00;99531.44;4978363;28;20096;-94
2022/11/18 02:21:50;;;;;;;6.35;1.83;;;;;;;6.56;100.00;99540.78;4994740;28;20030;-95
2022/11/18 02:24:50;;;;;;;7.25;1.70;;;;;;;6.59;100.00;99545.56;4994474;28;20065;-93
2022/11/18 02:27:45;;;;;;;5.70;1.38;;;;;;;6.62;100.00;99543.19;5005029;28;20030;-93
2022/11/18 02:30:14;;;;;;;4.17;1.40;;;;;;;6.64;100.00;99550.91;4989895;28;20058;-93
2022/11/18 02:37:58;;;;;;;6.43;1.73;;;;;;;6.59;100.00;99532.25;4937653;26;20046;-93
2022/11/18 02:40:45;;;;;;;7.65;1.38;;;;;;;6.77;100.00;99554.94;5011622;28;20136;-94
2022/11/18 02:43:40;;;;;;;7.50;1.80;;;;;;;6.78;100.00;99564.50;5014811;28;20045;-94
2022/11/18 02:46:10;;;;;;;6.93;1.50;;;;;;;6.77;100.00;99566.34;5011659;28;20038;-94
2022/11/18 02:48:42;;;;;;;7.70;1.57;;;;;;;6.80;100.00;99560.50;4997809;28;20038;-93
2022/11/18 02:51:11;;;;;;;4.87;1.63;;;;;;;6.82;100.00;99573.59;5013908;28;20794;-93
2022/11/18 02:53:39;;;;;;;10.13;1.95;;;;;;;6.86;100.00;99576.50;5012586;28;20026;-93
2022/11/18 02:56:06;;;;;;;5.45;1.73;;;;;;;6.87;100.00;99572.78;5013873;28;20025;-93
2022/11/18 02:58:31;;;;;;;4.72;1.50;;;;;;;6.90;100.00;99572.25;4995684;28;20030;-93
2022/11/18 03:00:59;;;;;;;3.63;1.50;;;;;;;6.92;100.00;99572.81;5013130;28;20042;-94
2022/11/18 03:03:32;;;;;;;5.38;1.25;;;;;;;6.95;100.00;99580.25;5014483;28;20042;-94
2022/11/18 03:06:46;;;;;;;4.05;1.50;;;;;;;6.92;100.00;99565.59;5018850;28;20083;-96
2022/11/18 03:09:52;;;;;;;5.30;1.55;;;;;;;6.94;100.00;99579.47;5014895;28;20057;-96
2022/11/18 03:12:35;;;;;;;4.63;1.63;;;;;;;6.99;100.00;99586.66;4971721;28;20031;-96
2022/11/18 03:15:25;;;;;;;5.40;1.50;;;;;;;6.98;100.00;99587.72;5016994;28;20657;-96
2022/11/18 03:18:14;;;;;;;3.47;1.23;;;;;;;7.00;100.00;99590.91;5013238;28;20081;-96
2022/11/18 03:20:49;;;;;;;4.90;1.33;;;;;;;6.99;100.00;99591.97;5013838;28;20296;-96
2022/11/18 03:23:30;;;;;;;3.30;1.30;;;;;;;6.97;100.00;99588.78;5010585;28;20045;-96
2022/11/18 03:26:01;;;;;;;3.83;1.15;;;;;;;6.95;100.00;99594.38;5012884;28;20048;-96
2022/11/18 03:28:37;;;;;;;6.47;1.70;;;;;;;6.94;100.00;99602.59;4995318;28;20026;-96
2022/11/18 03:31:41;;;;;;;6.32;1.70;;;;;;;6.91;100.00;99609.28;5013445;28;20116;-96
2022/11/18 03:34:16;;;;;;;8.13;1.55;;;;;;;6.94;100.00;99619.41;4933446;29;20086;-96
2022/11/18 03:36:46;;;;;;;4.15;1.58;;;;;;;6.93;100.00;99614.34;5004021;28;20054;-96
2022/11/18 03:39:15;;;;;;;7.05;1.90;;;;;;;6.88;100.00;99609.78;5012664;28;20021;-96
2022/11/18 03:41:51;;;;;;;6.03;1.57;;;;;;;6.92;100.00;99613.53;5008456;28;20030;-96
2022/11/18 03:44:24;;;;;;;5.30;1.90;;;;;;;6.92;100.00;99621.53;5015406;28;20388;-95
2022/11/18 03:47:07;;;;;;;4.88;1.70;;;;;;;6.92;100.00;99623.41;5015975;28;20054;-95
2022/11/18 03:49:41;;;;;;;8.90;1.70;;;;;;;6.88;100.00;99631.09;5012703;28;20482;-94
2022/11/18 03:52:14;;;;;;;6.93;2.03;;;;;;;6.88;100.00;99624.97;5015393;28;20085;-93
2022/11/18 03:54:43;;;;;;;5.55;1.80;;;;;;;6.87;100.00;99634.03;5012958;28;20026;-94
2022/11/18 03:57:14;;;;;;;6.60;2.00;;;;;;;6.82;100.00;99622.28;5013339;28;20048;-94
2022/11/18 03:59:47;;;;;;;6.80;2.03;;;;;;;6.85;100.00;99642.25;5002698;28;20489;-94
2022/11/18 04:02:17;;;;;;;10.67;1.97;;;;;;;6.76;100.00;99638.53;5007307;28;20041;-94
2022/11/18 04:04:46;;;;;;;5.47;1.93;;;;;;;6.82;100.00;99648.13;5013020;28;20293;-95
2022/11/18 04:07:31;;;;;;;9.70;2.38;;;;;;;6.82;100.00;99656.91;5018636;28;20026;-96
2022/11/18 04:10:13;;;;;;;7.38;2.17;;;;;;;6.80;100.00;99656.38;5013156;28;20125;-96
2022/11/18 04:12:44;;;;;;;7.47;2.38;;;;;;;6.77;100.00;99656.88;5012335;28;20137;-95
2022/11/18 04:15:11;;;;;;;8.32;2.38;;;;;;;6.77;100.00;99651.56;4995097;28;20025;-95
2022/11/18 04:17:36;;;;;;;10.02;2.20;;;;;;;6.76;100.00;99665.94;5012514;28;20104;-95
2022/11/18 04:20:01;;;;;;;8.20;2.40;;;;;;;6.77;100.00;99675.53;5012814;28;20165;-96
2022/11/18 04:22:27;;;;;;;9.70;2.33;;;;;;;6.73;100.00;99682.44;5003221;28;20040;-96
2022/11/18 04:24:52;;;;;;;6.13;2.13;;;;;;;6.65;100.00;99669.63;5006437;28;20103;-96
2022/11/18 04:27:17;;;;;;;9.05;2.53;;;;;;;6.62;100.00;99678.13;5012546;28;20052;-95
2022/11/18 04:29:43;;;;;;;8.73;2.67;;;;;;;6.55;100.00;99670.38;5010968;28;20018;-95
2022/11/18 04:32:08;;;;;;;7.20;2.87;;;;;;;6.51;100.00;99679.94;4992083;28;20113;-94
2022/11/18 04:34:33;;;;;;;11.83;2.90;;;;;;;6.47;100.00;99674.34;4997955;28;20033;-95
2022/11/18 04:36:59;;;;;;;13.27;2.57;;;;;;;6.43;100.00;99678.56;5010554;28;20037;-94
2022/11/18 04:39:25;;;;;;;6.43;2.53;;;;;;;6.41;100.00;99686.00;5011802;28;20393;-95
2022/11/18 04:41:57;;;;;;;5.93;2.50;;;;;;;6.30;100.00;99687.00;5010724;28;20080;-95
2022/11/18 04:44:23;;;;;;;9.23;2.38;;;;;;;6.26;100.00;99693.91;5012832;28;20508;-94
2022/11/18 04:46:49;;;;;;;8.15;2.67;;;;;;;6.17;100.00;99698.91;5009502;28;20066;-94
2022/11/18 04:49:14;;;;;;;6.33;2.50;;;;;;;6.05;100.00;99705.22;5011130;28;20083;-94
2022/11/18 04:51:44;;;;;;;7.23;2.23;;;;;;;6.01;100.00;99700.66;5009435;28;20937;-95
2022/11/18 04:54:10;;;;;;;8.52;2.58;;;;;;;5.96;100.00;99701.38;5013129;28;20525;-94
2022/11/18 04:56:36;;;;;;;11.13;3.00;;;;;;;5.90;100.00;99700.53;5012428;28;20028;-94
2022/11/18 04:59:02;;;;;;;11.00;2.47;;;;;;;5.86;100.00;99706.63;4995372;28;20022;-93
2022/11/18 05:01:28;;;;;;;7.10;2.47;;;;;;;5.81;100.00;99707.41;5014234;28;20034;-94
2022/11/18 05:03:54;;;;;;;10.88;2.60;;;;;;;5.77;100.00;99708.94;5024861;28;20017;-95
2022/11/18 05:06:20;;;;;;;8.07;2.72;;;;;;;5.78;100.00;99717.72;5027464;28;20025;-93
2022/11/18 05:08:45;;;;;;;7.37;2.83;;;;;;;5.75;100.00;99714.50;5007915;28;20032;-92
2022/11/18 05:13:54;;;;;;;8.27;2.63;;;;;;;5.67;100.00;99719.47;5017845;28;20077;-92
2022/11/18 05:16:20;;;;;;;7.10;2.60;;;;;;;5.63;100.00;99727.16;5015966;28;20640;-93
2022/11/18 05:18:45;;;;;;;10.80;3.27;;;;;;;5.61;100.00;99727.44;5013895;28;20093;-93
2022/11/18 05:21:11;;;;;;;10.03;3.10;;;;;;;5.53;100.00;99725.19;5012104;28;20045;-93
2022/11/18 05:23:36;;;;;;;8.27;3.47;;;;;;;5.55;100.00;99728.41;5009908;28;20022;-92
2022/11/18 05:26:05;;;;;;;8.60;3.20;;;;;;;5.52;100.00;99739.53;5010707;28;20312;-93
2022/11/18 05:28:30;;;;;;;8.80;2.97;;;;;;;5.49;100.00;99733.94;4994589;28;20033;-92
2022/11/18 05:30:55;;;;;;;10.37;3.43;;;;;;;5.51;100.00;99727.31;4993570;28;20124;-94
2022/11/18 05:33:22;;;;;;;13.00;3.53;;;;;;;5.51;100.00;99735.28;5015389;28;20073;-95
2022/11/18 05:35:48;;;;;;;7.47;3.28;;;;;;;5.51;100.00;99735.28;5025807;28;20065;-93
2022/11/18 05:38:14;;;;;;;8.00;3.90;;;;;;;5.53;100.00;99745.69;5011473;28;20057;-94
2022/11/18 05:40:41;;;;;;;10.85;3.47;;;;;;;5.52;100.00;99744.06;5015279;28;20484;-93
2022/11/18 05:43:10;;;;;;;9.77;3.35;;;;;;;5.46;100.00;99745.88;5015120;28;20022;-93
2022/11/18 05:45:37;;;;;;;11.20;3.40;;;;;;;5.50;100.00;99757.59;5015622;28;20515;-94
2022/11/18 05:48:05;;;;;;;5.97;2.72;;;;;;;5.45;100.00;99754.91;5014617;28;20053;-93
2022/11/18 05:50:35;;;;;;;7.90;3.60;;;;;;;5.45;100.00;99765.53;5015114;28;20113;-94
2022/11/18 05:53:01;;;;;;;11.25;3.17;;;;;;;5.41;100.00;99762.53;5015767;28;20029;-93
2022/11/18 05:55:41;;;;;;;15.77;3.70;;;;;;;5.45;100.00;99757.56;5018371;28;20017;-93
2022/11/18 05:58:07;;;;;;;9.93;3.53;;;;;;;5.39;100.00;99763.84;5013982;28;20038;-94
2022/11/18 06:00:35;;;;;;;7.43;3.10;;;;;;;5.37;100.00;99763.31;5018015;28;20300;-94
2022/11/18 06:03:02;;;;;;;13.00;3.97;;;;;;;5.38;100.00;99773.69;5017630;28;20101;-95
2022/11/18 06:05:28;;;;;;;12.67;3.50;;;;;;;5.37;100.00;99779.25;5014421;28;20285;-95
2022/11/18 06:07:55;;;;;;;9.32;3.53;;;;;;;5.40;100.00;99776.09;5007899;28;20034;-94
2022/11/18 06:10:25;;;;;;;8.43;3.27;;;;;;;5.37;100.00;99780.06;5006037;28;20011;-95
2022/11/18 06:12:55;;;;;;;11.30;3.20;;;;;;;5.35;100.00;99786.66;5005695;28;20030;-96
2022/11/18 06:15:24;;;;;;;7.68;3.63;;;;;;;5.29;100.00;99777.81;5010602;28;20018;-94
2022/11/18 06:17:57;;;;;;;10.20;4.13;;;;;;;5.40;100.00;99792.03;5034603;28;20030;-92
2022/11/18 06:20:23;;;;;;;11.13;4.38;;;;;;;5.41;100.00;99797.09;5029480;28;20037;-94
2022/11/18 06:22:53;;;;;;;17.17;4.07;;;;;;;5.45;100.00;99808.03;5026701;28;20017;-94
2022/11/18 06:25:18;;;;;;;12.75;3.90;;;;;;;5.43;100.00;99804.81;5025277;28;20014;-94
2022/11/18 06:27:45;;;;;;;11.43;4.25;;;;;;;5.38;100.00;99818.88;5028012;28;20040;-95
2022/11/18 06:32:45;;;;;;;9.20;3.83;;;;;;;5.20;100.00;99809.34;5109579;22;20351;-96
2022/11/18 06:35:11;;;;;;;12.13;4.70;;;;;;;5.22;100.00;99819.69;5002762;28;20105;-94
2022/11/18 06:37:45;;;;;;;14.00;4.80;;;;;;;5.12;100.00;99815.06;5005176;28;20027;-95
2022/11/18 06:40:22;;;;;;;12.27;4.72;;;;;;;5.16;100.00;99816.19;5014338;28;20026;-95
2022/11/18 06:45:37;;;;;;;11.50;4.32;;;;;;;5.11;100.00;99810.81;5000612;28;20076;-95
2022/11/18 06:48:12;;;;;;;14.10;4.57;;;;;;;5.11;100.00;99808.97;5005764;28;20030;-96
2022/11/18 06:50:37;;;;;;;8.73;4.22;;;;;;;5.21;100.00;99824.22;4997570;28;20014;-96
2022/11/18 06:53:04;;;;;;;16.23;4.55;;;;;;;5.27;100.00;99839.19;5053873;23;20079;-95
2022/11/18 06:55:33;;;;;;;11.90;4.40;;;;;;;5.17;100.00;99823.09;5189857;22;20085;-96
2022/11/18 07:03:15;;;;;;;14.95;5.63;;;;;;;5.30;100.00;99854.59;5335710;22;20080;-96
2022/11/18 07:08:26;;;;;;;15.90;6.55;;;;;;;5.25;100.00;99853.75;5966596;22;20212;-96
2022/11/18 07:13:27;;;;;;;25.30;10.40;;;;;;;5.46;100.00;99870.75;5187054;22;20058;-94
2022/11/18 07:15:53;;;;;;;46.70;20.43;;;;;;;5.41;100.00;99865.38;5358800;22;20091;-93
2022/11/18 07:18:18;;;;;;;16.17;6.80;;;;;;;5.48;100.00;99868.63;5030476;28;20313;-96
2022/11/18 07:20:44;;;;;;;13.23;5.50;;;;;;;5.55;100.00;99874.59;5195001;23;20068;-96
2022/11/18 07:33:55;;;;;;;15.32;4.90;;;;;;;5.50;100.00;99905.59;3459824;22;20041;-93
2022/11/18 07:36:27;;;;;;;10.10;5.10;;;;;;;5.35;100.00;99882.28;5042669;28;20048;-96
2022/11/18 08:25:43;;;;;;;23.75;5.60;;;;;;;5.80;100.00;99969.00;5315392;22;20057;-92
2022/11/18 08:28:10;;;;;;;14.43;4.60;;;;;;;5.79;100.00;99972.69;5026794;28;20025;-93
2022/11/18 08:30:36;;;;;;;11.43;4.65;;;;;;;5.79;100.00;99979.84;5034540;28;20081;-95
2022/11/18 08:33:02;;;;;;;13.50;5.10;;;;;;;5.75;100.00;99982.22;5020408;28;20033;-94
2022/11/18 08:35:28;;;;;;;11.57;4.57;;;;;;;5.74;100.00;99977.94;5018874;28;20285;-95
2022/11/18 08:37:54;;;;;;;8.63;4.97;;;;;;;5.70;100.00;99974.16;5034597;28;20057;-94
2022/11/18 08:40:20;;;;;;;8.30;4.45;;;;;;;5.72;100.00;99982.69;5048344;28;20025;-95
2022/11/18 08:42:45;;;;;;;12.43;4.50;;;;;;;5.70;100.00;99977.63;5050722;28;20037;-94
2022/11/18 08:45:11;;;;;;;14.20;4.78;;;;;;;5.75;100.00;99983.00;5034929;28;20171;-94
2022/11/18 08:47:37;;;;;;;12.57;4.53;;;;;;;5.81;100.00;99981.25;5052056;28;20048;-95
2022/11/18 08:50:04;;;;;;;10.80;4.53;;;;;;;5.86;100.00;99993.78;5033433;28;20045;-95
2022/11/18 08:52:29;;;;;;;36.80;5.95;;;;;;;5.90;100.00;99981.59;5050443;28;20033;-94
2022/11/18 08:54:54;;;;;;;12.70;4.70;;;;;;;5.97;100.00;99995.50;5056023;28;20068;-94
2022/11/18 08:57:20;;;;;;;14.67;4.83;;;;;;;5.99;100.00;99993.41;5056901;28;20029;-94
2022/11/18 08:59:45;;;;;;;35.23;6.07;;;;;;;6.02;100.00;99994.81;5057024;28;20020;-95
2022/11/18 09:02:18;;;;;;;82.13;8.80;;;;;;;6.14;100.00;99992.81;5057037;28;20044;-95
2022/11/18 09:04:46;;;;;;;51.72;6.97;;;;;;;6.25;100.00;99991.09;5055312;28;20017;-94
2022/11/18 09:07:11;;;;;;;9.90;4.88;;;;;;;6.38;100.00;100005.88;5055818;28;20022;-95
2022/11/18 09:09:37;;;;;;;10.80;4.73;;;;;;;6.48;100.00;100002.50;5054606;28;20022;-94
2022/11/18 09:12:02;;;;;;;92.43;9.10;;;;;;;6.56;100.00;100011.91;5054825;28;20033;-94
2022/11/18 09:14:28;;;;;;;19.13;5.20;;;;;;;6.65;100.00;100011.19;5035187;28;20025;-95
2022/11/18 09:16:53;;;;;;;15.30;4.73;;;;;;;6.80;100.00;100018.50;5033618;28;20085;-96
2022/11/18 09:19:19;;;;;;;8.73;4.90;;;;;;;6.92;100.00;100009.56;5051323;28;20022;-94
2022/11/18 09:21:44;;;;;;;10.10;4.30;;;;;;;6.98;100.00;100005.88;5052491;28;20017;-96
2022/11/18 09:24:15;;;;;;;8.90;3.73;;;;;;;7.14;100.00;100012.16;5053789;28;20637;-96
2022/11/18 09:26:43;;;;;;;5.80;3.60;;;;;;;7.19;100.00;100014.88;5047364;28;20087;-95
2022/11/18 09:29:10;;;;;;;12.30;4.13;;;;;;;7.26;100.00;100014.63;5025157;28;20022;-96
2022/11/18 09:31:35;;;;;;;6.57;3.97;;;;;;;7.27;100.00;100025.03;5024971;28;20299;-96
2022/11/18 09:34:01;;;;;;;13.52;3.65;;;;;;;7.28;100.00;100031.19;5024016;28;20124;-95
2022/11/18 09:36:27;;;;;;;7.03;3.60;;;;;;;7.33;100.00;100033.88;5039586;28;20038;-96
2022/11/18 09:38:52;;;;;;;10.25;3.45;;;;;;;7.40;100.00;100045.13;5039754;28;20025;-96
2022/11/18 09:41:36;;;;;;;11.67;3.53;;;;;;;7.46;100.00;100039.84;5037728;28;20536;-93
2022/11/18 09:44:20;;;;;;;8.30;3.78;;;;;;;7.52;100.00;100046.78;5036504;28;20388;-94
2022/11/18 09:47:09;;;;;;;10.68;3.65;;;;;;;7.61;100.00;100052.44;5038028;28;20102;-93
2022/11/18 10:06:57;;;;;;;9.48;2.90;;;;;;;8.76;100.00;100098.91;4962456;28;20043;-95
2022/11/18 10:09:33;;;;;;;10.82;2.83;;;;;;;8.74;100.00;100100.25;5018402;28;20064;-94
2022/11/18 10:12:40;;;;;;;7.28;3.20;;;;;;;8.77;100.00;100102.38;5042220;28;20037;-96
2022/11/18 10:15:25;;;;;;;10.60;3.55;;;;;;;8.86;100.00;100100.00;5047532;28;20048;-96
2022/11/18 10:18:16;;;;;;;7.40;3.07;;;;;;;8.92;100.00;100102.44;5051608;28;20040;-96
2022/11/18 10:21:23;;;;;;;11.67;3.10;;;;;;;8.97;100.00;100106.16;5487006;22;20322;-96
2022/11/18 10:24:29;;;;;;;9.55;2.90;;;;;;;9.00;100.00;100110.97;5034820;28;20073;-96
2022/11/18 10:27:28;;;;;;;8.82;2.95;;;;;;;9.17;100.00;100106.19;5047525;28;20028;-96
2022/11/18 10:33:01;;;;;;;11.48;3.33;;;;;;;9.69;100.00;100116.91;5028638;28;20096;-96
2022/11/18 10:36:14;;;;;;;9.93;3.10;;;;;;;9.69;100.00;100098.16;5008418;28;20065;-96
2022/11/18 10:39:17;;;;;;;7.50;2.70;;;;;;;9.74;100.00;100102.72;4932904;29;20048;-96
2022/11/18 10:49:15;;;;;;;7.13;2.20;;;;;;;9.65;100.00;100121.19;4910857;29;20073;-96
2022/11/18 10:55:40;;;;;;;5.65;1.70;;;;;;;9.63;100.00;100126.00;4918272;29;20044;-96
2022/11/18 10:58:16;;;;;;;6.68;2.13;;;;;;;9.65;100.00;100123.88;4898651;29;20059;-96
2022/11/18 11:00:46;;;;;;;7.45;2.28;;;;;;;9.76;100.00;100144.19;4900706;29;20015;-96
2022/11/18 11:03:22;;;;;;;8.30;2.00;;;;;;;9.59;100.00;100115.03;4900998;29;20047;-96
2022/11/18 11:06:00;;;;;;;6.93;2.00;;;;;;;9.61;100.00;100130.81;5097618;23;20316;-96
2022/11/18 11:08:26;;;;;;;9.82;2.35;;;;;;;9.51;100.00;100124.41;5022259;28;20021;-96
2022/11/18 11:11:25;;;;;;;7.85;2.00;;;;;;;9.64;100.00;100144.47;5005814;28;20026;-96
2022/11/18 11:14:45;;;;;;;5.07;2.00;;;;;;;9.62;100.00;100141.25;5001766;28;20026;-95
2022/11/18 11:17:19;;;;;;;8.15;2.30;;;;;;;9.61;100.00;100136.97;5009877;28;20034;-96
2022/11/18 11:20:17;;;;;;;6.95;1.70;;;;;;;9.68;100.00;100144.72;5000555;28;20461;-95
2022/11/18 11:22:49;;;;;;;7.25;1.90;;;;;;;9.75;100.00;100134.56;5019273;28;20064;-95
2022/11/18 11:25:18;;;;;;;11.13;2.20;;;;;;;9.94;100.00;100148.19;5037355;28;20009;-96
2022/11/18 11:39:16;;;;;;;11.13;2.28;;;;;;;10.07;100.00;100143.34;5101750;23;20069;-95
2022/11/18 11:42:24;;;;;;;5.93;1.90;;;;;;;9.93;100.00;100137.75;4998621;28;20038;-96
2022/11/18 11:44:56;;;;;;;7.53;2.22;;;;;;;10.09;100.00;100160.72;5014365;28;20092;-95
2022/11/18 11:47:55;;;;;;;6.23;2.10;;;;;;;10.09;100.00;100162.63;4996037;28;20042;-96
2022/11/18 11:50:30;;;;;;;6.63;2.10;;;;;;;10.11;100.00;100158.59;5011006;28;20026;-96
2022/11/18 11:56:12;;;;;;;6.22;2.15;;;;;;;10.07;100.00;100160.19;5001249;28;20029;-96
2022/11/18 11:58:58;;;;;;;6.07;2.17;;;;;;;10.02;100.00;100159.41;5020641;28;20041;-96
2022/11/18 12:01:56;;;;;;;9.68;2.28;;;;;;;9.95;100.00;100167.72;5015016;28;20041;-95
2022/11/18 12:05:01;;;;;;;9.35;2.33;;;;;;;9.82;100.00;100169.06;5009850;28;20874;-92
2022/11/18 12:07:56;;;;;;;8.37;1.90;;;;;;;9.81;100.00;100167.47;4998259;28;20412;-93
2022/11/18 12:10:44;;;;;;;11.53;2.03;;;;;;;9.72;100.00;100151.13;5012258;28;20276;-92
2022/11/18 12:13:27;;;;;;;5.80;1.92;;;;;;;9.91;100.00;100167.47;5007740;28;20033;-93
2022/11/18 12:16:24;;;;;;;5.82;1.90;;;;;;;10.03;100.00;100169.88;5013488;28;20502;-94
2022/11/18 12:18:57;;;;;;;5.72;2.00;;;;;;;10.11;100.00;100163.94;4983750;28;20045;-92
2022/11/18 12:21:41;;;;;;;7.18;1.90;;;;;;;10.20;100.00;100168.75;4976267;28;20033;-93
2022/11/18 12:24:18;;;;;;;8.63;1.90;;;;;;;10.26;100.00;100165.78;4994131;28;20089;-92
2022/11/18 12:26:46;;;;;;;8.35;2.20;;;;;;;10.34;100.00;100163.63;4994001;28;20073;-93
2022/11/18 12:29:17;;;;;;;9.17;2.10;;;;;;;10.46;100.00;100156.13;4995560;28;20026;-94
2022/11/18 12:31:43;;;;;;;11.85;2.10;;;;;;;10.63;100.00;100146.97;5012003;28;20036;-92
2022/11/18 12:34:33;;;;;;;12.02;2.10;;;;;;;10.81;100.00;100158.91;5011226;28;20044;-96
2022/11/18 12:37:24;;;;;;;8.68;2.08;;;;;;;10.88;100.00;100164.78;5013495;28;20107;-93
2022/11/18 12:39:56;;;;;;;10.07;2.10;;;;;;;11.08;100.00;100168.44;5012745;28;20073;-93
2022/11/18 12:45:45;;;;;;;6.75;1.65;;;;;;;11.35;100.00;100166.09;5011851;28;20045;-92
2022/11/18 12:48:22;;;;;;;10.63;2.08;;;;;;;11.30;100.00;100176.06;5009688;28;20040;-94
2022/11/18 12:50:50;;;;;;;8.03;1.93;;;;;;;11.08;98.24;100169.22;5015089;28;20042;-93
2022/11/18 12:53:36;;;;;;;13.23;2.13;;;;;;;11.03;100.00;100180.78;5027415;28;20796;-93
2022/11/18 12:56:26;;;;;;;8.50;1.90;;;;;;;11.00;100.00;100173.28;5026316;28;20084;-93
2022/11/18 12:59:00;;;;;;;7.57;1.70;;;;;;;11.01;99.92;100177.59;5015811;28;20029;-93
2022/11/18 13:01:33;;;;;;;10.70;2.20;;;;;;;11.04;100.00;100174.34;5014133;28;20116;-96
2022/11/18 13:04:13;;;;;;;5.57;1.65;;;;;;;10.95;100.00;100192.09;5014749;28;20029;-95
2022/11/18 13:06:39;;;;;;;9.90;2.17;;;;;;;10.72;99.70;100189.00;5012915;28;20029;-95
2022/11/18 13:19:54;;;;;;;5.47;1.70;;;;;;;10.93;100.00;100196.94;5030417;28;20175;-86
2022/11/18 13:25:04;;;;;;;7.88;2.00;;;;;;;10.97;100.00;100199.88;5031484;28;20446;-85
2022/11/18 13:27:48;;;;;;;8.20;1.93;;;;;;;10.93;99.79;100207.66;5031182;28;20034;-86
2022/11/18 13:30:15;;;;;;;9.07;2.00;;;;;;;10.81;100.00;100202.63;5031567;28;20056;-92
2022/11/18 13:32:45;;;;;;;8.10;2.13;;;;;;;10.73;100.00;100209.34;5033743;28;20029;-94
2022/11/18 13:35:16;;;;;;;8.90;1.77;;;;;;;10.64;100.00;100210.97;5033882;28;20030;-93
2022/11/18 13:37:59;;;;;;;9.52;1.90;;;;;;;10.54;100.00;100214.47;5020818;28;20061;-93
2022/11/18 13:40:28;;;;;;;5.22;1.80;;;;;;;10.43;100.00;100208.34;5014323;28;20117;-90
2022/11/18 13:42:54;;;;;;;6.80;1.90;;;;;;;10.42;100.00;100206.75;5023509;28;20029;-90
2022/11/18 13:45:22;;;;;;;6.33;1.87;;;;;;;10.41;100.00;100209.69;5024210;28;20022;-90
2022/11/18 13:47:52;;;;;;;10.75;1.70;;;;;;;10.41;100.00;100210.50;5031254;28;20029;-90
2022/11/18 13:50:19;;;;;;;4.75;1.50;;;;;;;10.42;100.00;100216.66;5034878;28;20018;-90
2022/11/18 13:53:02;;;;;;;6.28;1.90;;;;;;;10.38;100.00;100215.56;5014082;28;20026;-89
2022/11/18 13:55:33;;;;;;;11.25;1.83;;;;;;;10.30;100.00;100215.06;5030879;28;20022;-90
2022/11/18 13:58:20;;;;;;;7.13;1.90;;;;;;;10.23;100.00;100203.81;5020715;28;20033;-90
2022/11/18 14:00:59;;;;;;;8.13;1.70;;;;;;;10.19;100.00;100210.78;5018053;28;20081;-90
2022/11/18 14:04:00;;;;;;;6.90;2.00;;;;;;;10.12;100.00;100213.75;5031973;28;20014;-89
2022/11/18 14:06:34;;;;;;;5.53;1.93;;;;;;;10.04;100.00;100216.97;5025931;28;20284;-90
2022/11/18 14:09:28;;;;;;;6.35;2.10;;;;;;;9.88;100.00;100213.50;5049170;28;20029;-91
2022/11/18 14:12:07;;;;;;;7.00;2.22;;;;;;;9.62;100.00;100218.81;5047755;28;20025;-93
2022/11/18 14:14:37;;;;;;;5.68;1.83;;;;;;;9.43;100.00;100218.53;5055442;28;20036;-93
2022/11/18 14:17:26;;;;;;;9.15;2.33;;;;;;;9.31;100.00;100216.09;5043418;28;20025;-93
2022/11/18 14:19:57;;;;;;;5.57;2.50;;;;;;;9.28;100.00;100218.50;5045742;28;20132;-94
2022/11/18 14:22:29;;;;;;;6.85;2.05;;;;;;;9.17;100.00;100217.69;5056700;28;20029;-93
2022/11/18 14:25:24;;;;;;;4.53;1.90;;;;;;;9.04;100.00;100227.78;5059173;28;20036;-93